Nos coordonnées

Nous sommes à votre écoute du lundi au dimanche de 10:00 à 19:00 au :

+32 (0)495 19 89 53

 

Adresse d'exploitation Adresse de facturation
Chaussée de Nivelles, 629
6230 Buzet
Belgique
Kouter 107/2
9000 Gent
Belgique

contact @ blackhelicopters.be (n'oubliez pas de supprimer les espaces)


Nous retrouver

Il est très fortement conseillé de nous appeler avant de venir sur le terrain, nous pouvons être en mission ou en vol!

 

La carte ci-dessous est interactive, cherchez vos itinéraires, déplacez la pour vous retrouver.

News

Votre panier

Le panier est vide

Météo Charleroi

METAR
EBCI 232220Z 28005KT 250V310 2500 -SN BR SCT002 BKN003 00/M01 Q0994 R24/590293 NOSIG =
EBCI 231710Z 2318/2424 32008KT 3500 -RASN SCT004 BKN006 PROB40 TEMPO 2318/2321 1200 SNRA BKN003 BECMG 2323/2401 28010KT 9999 NSW BKN016 BECMG 2408/2410 21007KT BECMG 2417/2419 SCT005 BKN008 TEMPO 2419/2424 2000 -SN BKN003
TAF
EBCI 231710Z 2318/2424 32008KT 3500 -RASN SCT004 BKN006 PROB40 TEMPO 2318/2321 1200 SNRA BKN003 BECMG 2323/2401 28010KT 9999 NSW BKN016 BECMG 2408/2410 21007KT BECMG 2417/2419 SCT005 BKN008 TEMPO 2419/2424 2000 -SN BKN003 =
Lever / Coucher : 07:28 / 16:21 UTC (Buzet 2021-01-23)